Time;durP1;ratioP1;P1;durP2;ratioP2;P2;SDS_P1;SDS_P2;PMS_P1;PMS_P2;Temp;Humidity;BMP_temperature;BMP_pressure;BME280_temperature;BME280_humidity;BME280_pressure;Samples;Min_cycle;Max_cycle;Signal;HPM_P1;HPM_P2
2023/12/23 00:01:16;;;;;;;;;;;1.30;99.90;;;;;;5013191;28;20336;-60
2023/12/23 00:03:43;;;;;;;;;;;1.30;99.90;;;;;;5013759;28;20406;-60
2023/12/23 00:06:10;;;;;;;;;;;1.30;99.90;;;;;;5010740;28;19926;-59
2023/12/23 00:08:37;;;;;;;;;;;1.40;99.90;;;;;;5016736;28;20331;-65
2023/12/23 00:11:04;;;;;;;;;;;1.30;99.90;;;;;;5014297;28;19930;-59
2023/12/23 00:13:31;;;;;;;;;;;1.40;99.90;;;;;;5022617;28;20364;-62
2023/12/23 00:15:57;;;;;;;;;;;1.30;99.90;;;;;;5013481;28;19929;-66
2023/12/23 00:18:24;;;;;;;;;;;1.30;99.90;;;;;;5011056;28;19995;-62
2023/12/23 00:20:51;;;;;;;;;;;1.40;99.90;;;;;;5011080;28;20028;-66
2023/12/23 00:23:18;;;;;;;;;;;1.40;99.90;;;;;;5014584;28;19936;-64
2023/12/23 00:25:45;;;;;;;;;;;1.50;99.90;;;;;;5012347;28;19936;-61
2023/12/23 00:28:12;;;;;;;;;;;1.50;99.90;;;;;;5013003;28;20368;-60
2023/12/23 00:30:39;;;;;;;;;;;1.50;99.90;;;;;;5015657;28;19929;-67
2023/12/23 00:33:06;;;;;;;;;;;1.50;99.90;;;;;;5016540;28;19933;-60
2023/12/23 00:35:33;;;;;;;;;;;1.50;99.90;;;;;;5015912;28;19940;-59
2023/12/23 00:37:59;;;;;;;;;;;1.60;99.90;;;;;;5021916;28;19929;-62
2023/12/23 00:40:26;;;;;;;;;;;1.60;99.90;;;;;;5004772;28;19930;-61
2023/12/23 00:42:53;;;;;;;;;;;1.60;99.90;;;;;;4986479;28;20429;-59
2023/12/23 00:45:20;;;;;;;;;;;1.60;99.90;;;;;;4988539;28;19952;-59
2023/12/23 00:47:47;;;;;;;;;;;1.60;99.90;;;;;;5008294;28;20365;-60
2023/12/23 00:50:13;;;;;;;;;;;1.50;99.90;;;;;;5014046;28;19932;-60
2023/12/23 00:52:40;;;;;;;;;;;1.50;99.90;;;;;;5013940;28;20003;-61
2023/12/23 00:55:08;;;;;;;;;;;1.50;99.90;;;;;;5013549;28;20344;-65
2023/12/23 00:57:34;;;;;;;;;;;1.50;99.90;;;;;;5019618;28;19925;-62
2023/12/23 01:00:01;;;;;;;;;;;1.50;99.90;;;;;;5017146;28;19930;-59
2023/12/23 01:02:28;;;;;;;;;;;1.50;99.90;;;;;;5021178;28;19968;-61
2023/12/23 01:04:55;;;;;;;;;;;1.50;99.90;;;;;;5007285;28;19979;-58
2023/12/23 01:07:22;;;;;;;;;;;1.50;99.90;;;;;;5010489;28;20027;-63
2023/12/23 01:09:49;;;;;;;;;;;1.50;99.90;;;;;;5010233;28;19929;-59
2023/12/23 01:12:16;;;;;;;;;;;1.60;99.90;;;;;;5014756;28;19931;-62
2023/12/23 01:14:44;;;;;;;;;;;1.60;99.90;;;;;;4995619;28;20360;-61
2023/12/23 01:17:11;;;;;;;;;;;1.50;99.90;;;;;;5014746;28;19929;-58
2023/12/23 01:19:37;;;;;;;;;;;1.60;99.90;;;;;;5021239;28;20052;-61
2023/12/23 01:22:04;;;;;;;;;;;1.50;99.90;;;;;;5019560;28;19975;-60
2023/12/23 01:24:31;;;;;;;;;;;1.60;99.90;;;;;;5020473;28;20441;-61
2023/12/23 01:26:58;;;;;;;;;;;1.60;99.90;;;;;;5006142;28;20372;-61
2023/12/23 01:29:25;;;;;;;;;;;1.60;99.90;;;;;;5012306;28;19972;-62
2023/12/23 01:31:51;;;;;;;;;;;1.60;99.90;;;;;;5008416;28;20334;-62
2023/12/23 01:34:18;;;;;;;;;;;1.50;99.90;;;;;;5006509;28;20323;-65
2023/12/23 01:36:45;;;;;;;;;;;1.50;99.90;;;;;;5013272;28;20439;-59
2023/12/23 01:39:13;;;;;;;;;;;1.50;99.90;;;;;;5012799;28;19929;-62
2023/12/23 01:41:39;;;;;;;;;;;1.60;99.90;;;;;;5016717;28;20020;-63
2023/12/23 01:44:06;;;;;;;;;;;1.50;99.90;;;;;;5017756;28;19988;-58
2023/12/23 01:46:34;;;;;;;;;;;1.50;99.90;;;;;;4998280;28;19940;-67
2023/12/23 01:49:01;;;;;;;;;;;1.50;99.90;;;;;;5013257;28;19925;-61
2023/12/23 01:51:28;;;;;;;;;;;1.50;99.90;;;;;;5005841;28;19960;-60
2023/12/23 01:54:02;;;;;;;;;;;1.50;99.90;;;;;;4984618;28;19972;-66
2023/12/23 01:56:29;;;;;;;;;;;1.50;99.90;;;;;;4995900;28;19935;-63
2023/12/23 01:58:57;;;;;;;;;;;1.50;99.90;;;;;;5014753;28;19929;-59
2023/12/23 02:01:24;;;;;;;;;;;1.50;99.90;;;;;;5011861;28;19925;-60
2023/12/23 02:03:51;;;;;;;;;;;1.40;99.90;;;;;;4984961;28;19925;-62
2023/12/23 02:06:18;;;;;;;;;;;1.40;99.90;;;;;;5007598;28;20468;-60
2023/12/23 02:08:45;;;;;;;;;;;1.40;99.90;;;;;;5012755;28;19991;-61
2023/12/23 02:11:13;;;;;;;;;;;1.30;99.90;;;;;;5017422;28;19926;-63
2023/12/23 02:13:44;;;;;;;;;;;1.40;99.90;;;;;;4998265;28;19929;-66
2023/12/23 02:16:10;;;;;;;;;;;1.40;99.90;;;;;;5003309;28;19936;-59
2023/12/23 02:18:38;;;;;;;;;;;1.40;99.90;;;;;;5010274;28;19976;-62
2023/12/23 02:21:05;;;;;;;;;;;1.40;99.90;;;;;;5006032;28;20536;-59
2023/12/23 02:23:32;;;;;;;;;;;1.40;99.90;;;;;;5014459;28;19930;-60
2023/12/23 02:26:00;;;;;;;;;;;1.40;99.90;;;;;;5010790;28;19935;-64
2023/12/23 02:28:27;;;;;;;;;;;1.40;99.90;;;;;;5014103;28;20015;-60
2023/12/23 02:30:55;;;;;;;;;;;1.40;99.90;;;;;;5017510;28;19929;-62
2023/12/23 02:33:23;;;;;;;;;;;1.40;99.90;;;;;;5020105;28;19925;-61
2023/12/23 02:35:52;;;;;;;;;;;1.40;99.90;;;;;;5018268;28;19933;-59
2023/12/23 02:38:22;;;;;;;;;;;1.40;99.90;;;;;;4991860;28;20462;-58
2023/12/23 02:40:49;;;;;;;;;;;1.40;99.90;;;;;;5010723;28;19929;-61
2023/12/23 02:43:16;;;;;;;;;;;1.40;99.90;;;;;;5002361;28;20302;-66
2023/12/23 02:45:43;;;;;;;;;;;1.40;99.90;;;;;;5010831;28;20026;-61
2023/12/23 02:48:10;;;;;;;;;;;1.40;99.90;;;;;;4995090;28;19929;-62
2023/12/23 02:50:37;;;;;;;;;;;1.30;99.90;;;;;;4996220;28;20007;-63
2023/12/23 02:53:07;;;;;;;;;;;1.30;99.90;;;;;;4980149;28;19925;-61
2023/12/23 02:55:35;;;;;;;;;;;1.30;99.90;;;;;;5019153;28;19925;-64
2023/12/23 02:58:02;;;;;;;;;;;1.30;99.90;;;;;;5017536;28;19983;-66
2023/12/23 03:00:29;;;;;;;;;;;1.30;99.90;;;;;;5010610;28;19929;-63
2023/12/23 03:02:57;;;;;;;;;;;1.30;99.90;;;;;;5007845;28;19956;-59
2023/12/23 03:05:23;;;;;;;;;;;1.30;99.90;;;;;;5005654;28;19929;-60
2023/12/23 03:07:50;;;;;;;;;;;1.30;99.90;;;;;;5011597;28;19968;-61
2023/12/23 03:10:17;;;;;;;;;;;1.30;99.90;;;;;;5010892;28;19926;-59
2023/12/23 03:12:46;;;;;;;;;;;1.30;99.90;;;;;;5014161;28;20052;-63
2023/12/23 03:15:14;;;;;;;;;;;1.30;99.90;;;;;;5010308;28;19979;-59
2023/12/23 03:17:40;;;;;;;;;;;1.20;99.90;;;;;;5015031;28;19929;-65
2023/12/23 03:20:08;;;;;;;;;;;1.20;99.90;;;;;;5000638;28;19935;-65
2023/12/23 03:22:35;;;;;;;;;;;1.20;99.90;;;;;;5003607;28;19937;-60
2023/12/23 03:25:02;;;;;;;;;;;1.20;99.90;;;;;;5000885;28;19926;-62
2023/12/23 03:27:29;;;;;;;;;;;1.20;99.90;;;;;;4998368;28;20016;-65
2023/12/23 03:29:56;;;;;;;;;;;1.10;99.90;;;;;;5005944;28;20402;-58
2023/12/23 03:32:23;;;;;;;;;;;1.20;99.90;;;;;;5011714;28;19929;-62
2023/12/23 03:34:51;;;;;;;;;;;1.20;99.90;;;;;;5013968;28;19929;-61
2023/12/23 03:37:18;;;;;;;;;;;1.20;99.90;;;;;;5015387;28;19953;-60
2023/12/23 03:39:45;;;;;;;;;;;1.10;99.90;;;;;;5016629;28;19929;-62
2023/12/23 03:42:12;;;;;;;;;;;1.10;99.90;;;;;;5024429;28;19925;-65
2023/12/23 03:44:38;;;;;;;;;;;1.10;99.90;;;;;;5018895;28;19945;-63
2023/12/23 03:47:05;;;;;;;;;;;1.20;99.90;;;;;;5018956;28;19936;-63
2023/12/23 03:49:32;;;;;;;;;;;1.10;99.90;;;;;;5008418;28;19953;-64
2023/12/23 03:51:59;;;;;;;;;;;1.10;99.90;;;;;;5008587;28;20323;-60
2023/12/23 03:54:26;;;;;;;;;;;1.10;99.90;;;;;;5005692;28;19929;-62
2023/12/23 03:56:53;;;;;;;;;;;1.00;99.90;;;;;;5013358;28;19925;-65
2023/12/23 03:59:19;;;;;;;;;;;1.10;99.90;;;;;;5011386;28;19933;-62
2023/12/23 04:01:46;;;;;;;;;;;1.00;99.90;;;;;;5016342;28;19929;-61
2023/12/23 04:04:13;;;;;;;;;;;1.00;99.90;;;;;;5018790;28;19930;-65
2023/12/23 04:06:40;;;;;;;;;;;0.90;99.90;;;;;;5008414;28;19980;-62
2023/12/23 04:09:09;;;;;;;;;;;0.90;99.90;;;;;;5019321;28;20354;-61
2023/12/23 04:11:36;;;;;;;;;;;0.90;99.90;;;;;;4992974;28;19929;-61
2023/12/23 04:14:03;;;;;;;;;;;0.90;99.90;;;;;;4994783;28;19934;-62
2023/12/23 04:16:30;;;;;;;;;;;0.90;99.90;;;;;;5012327;28;20347;-60
2023/12/23 04:18:57;;;;;;;;;;;1.00;99.90;;;;;;4984241;28;19929;-60
2023/12/23 04:21:24;;;;;;;;;;;0.90;99.90;;;;;;5011633;28;20319;-62
2023/12/23 04:23:51;;;;;;;;;;;0.90;99.90;;;;;;5009054;28;19937;-62
2023/12/23 04:26:18;;;;;;;;;;;1.00;99.90;;;;;;5015160;28;19933;-64
2023/12/23 04:28:45;;;;;;;;;;;1.00;99.90;;;;;;5022150;28;20211;-63
2023/12/23 04:31:11;;;;;;;;;;;0.90;99.90;;;;;;5017809;28;20383;-61
2023/12/23 04:33:39;;;;;;;;;;;1.00;99.90;;;;;;4979185;28;20380;-68
2023/12/23 04:36:06;;;;;;;;;;;1.00;99.90;;;;;;4987413;28;19996;-60
2023/12/23 04:38:35;;;;;;;;;;;1.00;99.90;;;;;;4994176;28;20647;-62
2023/12/23 04:41:02;;;;;;;;;;;1.00;99.90;;;;;;5008744;28;19926;-66
2023/12/23 04:43:33;;;;;;;;;;;1.00;99.90;;;;;;4998699;28;19925;-60
2023/12/23 04:46:00;;;;;;;;;;;1.00;99.90;;;;;;5012708;28;19930;-60
2023/12/23 04:48:26;;;;;;;;;;;1.00;99.90;;;;;;4987588;28;19933;-66
2023/12/23 04:50:53;;;;;;;;;;;1.00;99.90;;;;;;4982675;28;19930;-64
2023/12/23 04:53:21;;;;;;;;;;;0.90;99.90;;;;;;4998435;28;20623;-60
2023/12/23 04:55:48;;;;;;;;;;;0.90;99.90;;;;;;4983031;28;19930;-67
2023/12/23 04:58:15;;;;;;;;;;;0.90;99.90;;;;;;5014077;28;19929;-63
2023/12/23 05:00:42;;;;;;;;;;;1.00;99.90;;;;;;4983198;28;20322;-64
2023/12/23 05:03:09;;;;;;;;;;;0.90;99.90;;;;;;5012748;28;19969;-62
2023/12/23 05:05:35;;;;;;;;;;;0.80;99.90;;;;;;5010253;28;19933;-66
2023/12/23 05:08:03;;;;;;;;;;;0.80;99.90;;;;;;5013780;28;20011;-62
2023/12/23 05:10:30;;;;;;;;;;;0.70;99.90;;;;;;5017235;28;19990;-61
2023/12/23 05:12:58;;;;;;;;;;;0.70;99.90;;;;;;4997226;28;19929;-67
2023/12/23 05:15:24;;;;;;;;;;;0.70;99.90;;;;;;5003724;28;19933;-60
2023/12/23 05:17:51;;;;;;;;;;;0.70;99.90;;;;;;5018587;28;19929;-67
2023/12/23 05:20:18;;;;;;;;;;;0.60;99.90;;;;;;5020633;28;19932;-60
2023/12/23 05:22:45;;;;;;;;;;;0.60;99.90;;;;;;5009271;28;19930;-60
2023/12/23 05:25:13;;;;;;;;;;;0.70;99.90;;;;;;4990707;28;19930;-62
2023/12/23 05:27:39;;;;;;;;;;;0.60;99.90;;;;;;5008957;28;20393;-65
2023/12/23 05:30:07;;;;;;;;;;;0.60;99.90;;;;;;5010242;28;19960;-60
2023/12/23 05:32:33;;;;;;;;;;;0.60;99.90;;;;;;5011469;28;20060;-67
2023/12/23 05:35:00;;;;;;;;;;;0.50;99.90;;;;;;5016434;28;20641;-66
2023/12/23 05:37:27;;;;;;;;;;;0.60;99.90;;;;;;5016032;28;19941;-60
2023/12/23 05:39:54;;;;;;;;;;;0.60;99.90;;;;;;5010872;28;19933;-68
2023/12/23 05:42:21;;;;;;;;;;;0.60;99.90;;;;;;5015585;28;20442;-61
2023/12/23 05:44:47;;;;;;;;;;;0.60;99.90;;;;;;5003733;28;19961;-62
2023/12/23 05:47:14;;;;;;;;;;;0.60;99.90;;;;;;5009248;28;19936;-60
2023/12/23 05:49:41;;;;;;;;;;;0.60;99.90;;;;;;5007262;28;20024;-65
2023/12/23 05:52:08;;;;;;;;;;;0.60;99.90;;;;;;5012043;28;19937;-63
2023/12/23 05:54:35;;;;;;;;;;;0.50;99.90;;;;;;5007225;28;19942;-60
2023/12/23 05:57:01;;;;;;;;;;;0.50;99.90;;;;;;5016135;28;19984;-62
2023/12/23 05:59:28;;;;;;;;;;;0.50;99.90;;;;;;5009468;28;19925;-59
2023/12/23 06:01:55;;;;;;;;;;;0.50;99.90;;;;;;5011684;28;19932;-60
2023/12/23 06:04:22;;;;;;;;;;;0.50;99.90;;;;;;5020032;28;19929;-59
2023/12/23 06:06:49;;;;;;;;;;;0.50;99.90;;;;;;5015611;28;19999;-59
2023/12/23 06:09:16;;;;;;;;;;;0.50;99.90;;;;;;5009077;28;19937;-63
2023/12/23 06:11:42;;;;;;;;;;;0.50;99.90;;;;;;5007362;28;20522;-61
2023/12/23 06:14:09;;;;;;;;;;;0.40;99.90;;;;;;5011072;28;19929;-59
2023/12/23 06:16:40;;;;;;;;;;;0.30;99.90;;;;;;5009833;28;20035;-62
2023/12/23 06:19:07;;;;;;;;;;;0.30;99.90;;;;;;5014980;28;19966;-61
2023/12/23 06:21:34;;;;;;;;;;;0.30;99.90;;;;;;5013336;28;19969;-60
2023/12/23 06:24:00;;;;;;;;;;;0.20;99.90;;;;;;5007963;28;19930;-59
2023/12/23 06:26:27;;;;;;;;;;;0.20;99.90;;;;;;5014055;28;19960;-60
2023/12/23 06:28:54;;;;;;;;;;;0.20;99.90;;;;;;5017354;28;19934;-62
2023/12/23 06:31:22;;;;;;;;;;;0.20;99.90;;;;;;5019708;28;19932;-59
2023/12/23 06:33:49;;;;;;;;;;;0.10;99.90;;;;;;5005547;28;20028;-62
2023/12/23 06:36:16;;;;;;;;;;;0.20;99.90;;;;;;5006331;28;19964;-66
2023/12/23 06:38:43;;;;;;;;;;;0.10;99.90;;;;;;5007973;28;20387;-59
2023/12/23 06:41:10;;;;;;;;;;;0.10;99.90;;;;;;5005768;28;19932;-59
2023/12/23 06:43:38;;;;;;;;;;;0.10;99.90;;;;;;5013246;28;19933;-59
2023/12/23 06:46:18;;;;;;;;;;;0.00;99.90;;;;;;5007989;28;19951;-59
2023/12/23 06:48:44;;;;;;;;;;;-0.10;99.90;;;;;;5016260;28;20288;-63
2023/12/23 06:51:12;;;;;;;;;;;-0.10;99.90;;;;;;5009433;28;19936;-63
2023/12/23 06:53:38;;;;;;;;;;;-0.10;99.90;;;;;;5017757;28;20007;-62
2023/12/23 06:56:05;;;;;;;;;;;-0.20;99.90;;;;;;5014632;28;19984;-62
2023/12/23 06:58:32;;;;;;;;;;;-0.20;99.90;;;;;;5008753;28;20458;-59
2023/12/23 07:00:59;;;;;;;;;;;-0.30;99.90;;;;;;5009909;28;19932;-60
2023/12/23 07:03:26;;;;;;;;;;;-0.20;99.90;;;;;;5009562;28;20116;-60
2023/12/23 07:05:53;;;;;;;;;;;-0.20;99.90;;;;;;5013925;28;20355;-63
2023/12/23 07:08:20;;;;;;;;;;;-0.20;99.90;;;;;;5011606;28;19991;-59
2023/12/23 07:10:47;;;;;;;;;;;-0.20;99.90;;;;;;5018313;28;19929;-59
2023/12/23 07:13:14;;;;;;;;;;;-0.20;99.90;;;;;;5017088;28;19956;-61
2023/12/23 07:15:41;;;;;;;;;;;-0.20;99.90;;;;;;5022995;28;19925;-62
2023/12/23 07:18:09;;;;;;;;;;;-0.20;99.90;;;;;;5015421;28;20430;-60
2023/12/23 07:20:36;;;;;;;;;;;-0.30;99.90;;;;;;5009893;28;19930;-62
2023/12/23 07:23:03;;;;;;;;;;;-0.20;99.90;;;;;;5010134;28;20514;-58
2023/12/23 07:25:30;;;;;;;;;;;-0.30;99.90;;;;;;5011623;28;19930;-58
2023/12/23 07:27:56;;;;;;;;;;;-0.30;99.90;;;;;;5014691;28;19933;-63
2023/12/23 07:30:23;;;;;;;;;;;-0.20;99.90;;;;;;4988966;28;20037;-63
2023/12/23 07:32:50;;;;;;;;;;;-0.20;99.90;;;;;;5017248;28;19929;-61
2023/12/23 07:35:17;;;;;;;;;;;-0.30;99.90;;;;;;5017351;28;19932;-60
2023/12/23 07:37:48;;;;;;;;;;;-0.30;99.90;;;;;;5014361;28;19936;-58
2023/12/23 07:40:14;;;;;;;;;;;-0.30;99.90;;;;;;5018136;28;19937;-58
2023/12/23 07:42:41;;;;;;;;;;;-0.40;99.90;;;;;;5014495;28;20024;-58
2023/12/23 07:45:08;;;;;;;;;;;-0.40;99.90;;;;;;5004874;28;19930;-61
2023/12/23 07:47:35;;;;;;;;;;;-0.30;99.90;;;;;;5011679;28;20092;-58
2023/12/23 07:50:03;;;;;;;;;;;-0.30;99.90;;;;;;5007476;28;19984;-58
2023/12/23 07:52:30;;;;;;;;;;;-0.30;99.90;;;;;;5013460;28;20339;-62
2023/12/23 07:54:57;;;;;;;;;;;-0.40;99.90;;;;;;5013537;28;19936;-57
2023/12/23 07:57:24;;;;;;;;;;;-0.50;99.90;;;;;;5019695;28;19937;-58
2023/12/23 07:59:51;;;;;;;;;;;-0.50;99.90;;;;;;5016795;28;19929;-61
2023/12/23 08:02:17;;;;;;;;;;;-0.50;99.90;;;;;;5019889;28;19925;-58
2023/12/23 08:04:44;;;;;;;;;;;-0.50;99.90;;;;;;5015288;28;19941;-60
2023/12/23 08:07:11;;;;;;;;;;;-0.50;99.90;;;;;;5006153;28;19948;-58
2023/12/23 08:09:38;;;;;;;;;;;-0.50;99.90;;;;;;5011102;28;19961;-59
2023/12/23 08:12:08;;;;;;;;;;;-0.50;99.90;;;;;;5011283;28;19933;-56
2023/12/23 08:14:35;;;;;;;;;;;-0.40;99.90;;;;;;5011614;28;19987;-58
2023/12/23 08:17:02;;;;;;;;;;;-0.40;99.90;;;;;;5015398;28;20378;-59
2023/12/23 08:19:29;;;;;;;;;;;-0.40;99.90;;;;;;5011893;28;20908;-57
2023/12/23 08:21:56;;;;;;;;;;;-0.30;99.90;;;;;;5019628;28;19929;-58
2023/12/23 08:24:22;;;;;;;;;;;-0.30;99.90;;;;;;5013156;28;21294;-58
2023/12/23 08:26:50;;;;;;;;;;;-0.40;99.90;;;;;;5016333;28;19983;-58
2023/12/23 08:29:16;;;;;;;;;;;-0.40;99.90;;;;;;5018790;28;19929;-62
2023/12/23 08:31:44;;;;;;;;;;;-0.40;99.90;;;;;;5010025;28;19973;-59
2023/12/23 08:34:12;;;;;;;;;;;-0.40;99.90;;;;;;5011034;28;19991;-59
2023/12/23 08:36:39;;;;;;;;;;;-0.30;99.90;;;;;;5013387;28;19925;-65
2023/12/23 08:39:05;;;;;;;;;;;-0.20;99.90;;;;;;5015580;28;19937;-61
2023/12/23 08:41:35;;;;;;;;;;;-0.20;99.90;;;;;;5014846;28;19930;-61
2023/12/23 08:44:02;;;;;;;;;;;-0.20;99.90;;;;;;5017706;28;19935;-61
2023/12/23 08:46:29;;;;;;;;;;;-0.20;99.90;;;;;;5015226;28;19925;-57
2023/12/23 08:48:57;;;;;;;;;;;-0.20;99.90;;;;;;5013718;28;20310;-59
2023/12/23 08:51:24;;;;;;;;;;;-0.20;99.90;;;;;;5016303;28;20348;-58
2023/12/23 08:53:51;;;;;;;;;;;-0.20;99.90;;;;;;5012989;28;20446;-57
2023/12/23 08:56:17;;;;;;;;;;;-0.20;99.90;;;;;;5010064;28;19933;-58
2023/12/23 08:58:44;;;;;;;;;;;-0.10;99.90;;;;;;5013341;28;19929;-61
2023/12/23 09:01:11;;;;;;;;;;;-0.20;99.90;;;;;;5012947;28;19930;-57
2023/12/23 09:03:38;;;;;;;;;;;-0.20;99.90;;;;;;5014630;28;19933;-58
2023/12/23 09:06:06;;;;;;;;;;;-0.20;99.90;;;;;;5015386;28;19968;-61
2023/12/23 09:08:34;;;;;;;;;;;-0.20;99.90;;;;;;5018516;28;19969;-60
2023/12/23 09:11:04;;;;;;;;;;;-0.10;99.90;;;;;;5019284;28;19956;-61
2023/12/23 09:13:31;;;;;;;;;;;-0.20;99.90;;;;;;5016880;28;19929;-59
2023/12/23 09:16:01;;;;;;;;;;;-0.10;99.90;;;;;;5019018;28;19926;-58
2023/12/23 09:18:28;;;;;;;;;;;-0.10;99.90;;;;;;5007657;28;19975;-59
2023/12/23 09:20:54;;;;;;;;;;;-0.20;99.90;;;;;;5007765;28;19979;-62
2023/12/23 09:23:21;;;;;;;;;;;-0.10;99.90;;;;;;5011772;28;19969;-59
2023/12/23 09:25:48;;;;;;;;;;;-0.10;99.90;;;;;;5009077;28;19936;-58
2023/12/23 09:28:16;;;;;;;;;;;-0.10;99.90;;;;;;5013969;28;19929;-60
2023/12/23 09:30:43;;;;;;;;;;;-0.10;99.90;;;;;;5004402;28;19969;-61
2023/12/23 09:33:10;;;;;;;;;;;-0.10;99.90;;;;;;5018390;28;19929;-59
2023/12/23 09:35:37;;;;;;;;;;;-0.10;99.90;;;;;;5011320;28;19948;-59
2023/12/23 09:38:04;;;;;;;;;;;-0.10;99.90;;;;;;5019590;28;19929;-58
2023/12/23 09:40:31;;;;;;;;;;;-0.10;99.90;;;;;;5014037;28;19929;-59
2023/12/23 09:42:59;;;;;;;;;;;-0.10;99.90;;;;;;5011895;28;19973;-57
2023/12/23 09:45:26;;;;;;;;;;;-0.10;99.90;;;;;;5010302;28;19929;-60
2023/12/23 09:47:53;;;;;;;;;;;-0.10;99.90;;;;;;5012581;28;19929;-59
2023/12/23 09:50:20;;;;;;;;;;;-0.10;99.90;;;;;;5015823;28;19937;-61
2023/12/23 09:52:50;;;;;;;;;;;-0.10;99.90;;;;;;5009294;28;20471;-61
2023/12/23 09:55:17;;;;;;;;;;;-0.10;99.90;;;;;;4999831;28;19925;-61
2023/12/23 09:57:44;;;;;;;;;;;-0.10;99.90;;;;;;5013320;28;20016;-62
2023/12/23 10:00:11;;;;;;;;;;;-0.10;99.90;;;;;;5018804;28;19975;-59
2023/12/23 10:02:39;;;;;;;;;;;-0.10;99.90;;;;;;5015426;28;20012;-59
2023/12/23 10:05:07;;;;;;;;;;;-0.10;99.90;;;;;;5004865;28;19964;-57
2023/12/23 10:07:34;;;;;;;;;;;-0.10;99.90;;;;;;5002115;28;19929;-59
2023/12/23 10:10:00;;;;;;;;;;;-0.10;99.90;;;;;;5006157;28;20356;-57
2023/12/23 10:12:27;;;;;;;;;;;-0.10;99.90;;;;;;5009942;28;20016;-57
2023/12/23 10:14:54;;;;;;;;;;;0.00;99.90;;;;;;5013300;28;19952;-58
2023/12/23 10:17:21;;;;;;;;;;;0.00;99.90;;;;;;5012658;28;19936;-58
2023/12/23 10:19:48;;;;;;;;;;;-0.10;99.90;;;;;;5012393;28;19965;-59
2023/12/23 10:22:18;;;;;;;;;;;-0.10;99.90;;;;;;5019507;28;19929;-58
2023/12/23 10:24:45;;;;;;;;;;;-0.10;99.90;;;;;;5012292;28;19965;-57
2023/12/23 10:27:14;;;;;;;;;;;-0.10;99.90;;;;;;5012657;28;19972;-65
2023/12/23 10:29:43;;;;;;;;;;;-0.10;99.90;;;;;;5006641;28;19929;-64
2023/12/23 10:32:11;;;;;;;;;;;-0.20;99.90;;;;;;5003870;28;20029;-58
2023/12/23 10:34:42;;;;;;;;;;;-0.20;99.90;;;;;;5009205;28;20652;-58
2023/12/23 10:37:10;;;;;;;;;;;-0.20;99.90;;;;;;5005737;28;20406;-57
2023/12/23 10:39:43;;;;;;;;;;;-0.20;99.90;;;;;;5007610;28;19929;-61
2023/12/23 10:42:11;;;;;;;;;;;-0.20;99.90;;;;;;5006244;28;19929;-58
2023/12/23 10:44:40;;;;;;;;;;;-0.10;99.90;;;;;;5013417;28;20471;-61
2023/12/23 10:47:08;;;;;;;;;;;-0.10;99.90;;;;;;5010026;28;20025;-58
2023/12/23 10:49:35;;;;;;;;;;;-0.20;99.90;;;;;;5017431;28;19975;-60
2023/12/23 10:52:03;;;;;;;;;;;-0.20;99.90;;;;;;5006144;28;19973;-61
2023/12/23 10:54:31;;;;;;;;;;;-0.20;99.90;;;;;;5004626;28;19976;-57
2023/12/23 10:56:59;;;;;;;;;;;-0.20;99.90;;;;;;5003555;28;19929;-59
2023/12/23 10:59:26;;;;;;;;;;;-0.20;99.90;;;;;;5003445;28;19933;-60
2023/12/23 11:01:55;;;;;;;;;;;-0.20;99.90;;;;;;5012696;28;19947;-60
2023/12/23 11:04:24;;;;;;;;;;;-0.20;99.90;;;;;;5015118;28;19934;-57
2023/12/23 11:06:52;;;;;;;;;;;-0.30;99.90;;;;;;5014749;28;20008;-57
2023/12/23 11:09:21;;;;;;;;;;;-0.30;99.90;;;;;;5011704;28;19929;-60
2023/12/23 11:11:48;;;;;;;;;;;-0.20;99.90;;;;;;5014161;28;20056;-59
2023/12/23 11:14:15;;;;;;;;;;;-0.20;99.90;;;;;;5007313;28;20296;-64
2023/12/23 11:16:42;;;;;;;;;;;-0.30;99.90;;;;;;5003471;28;19964;-57
2023/12/23 11:19:09;;;;;;;;;;;-0.30;99.90;;;;;;5009492;28;19935;-61
2023/12/23 11:21:36;;;;;;;;;;;-0.30;99.90;;;;;;5011350;28;19926;-63
2023/12/23 11:24:23;;;;;;;;;;;-0.20;99.90;;;;;;5005131;28;20293;-60
2023/12/23 11:26:53;;;;;;;;;;;-0.30;99.90;;;;;;5012844;28;19961;-62
2023/12/23 11:29:22;;;;;;;;;;;-0.30;99.90;;;;;;5012371;28;19929;-60
2023/12/23 11:31:49;;;;;;;;;;;-0.30;99.90;;;;;;5010388;28;19936;-57
2023/12/23 11:34:17;;;;;;;;;;;-0.30;99.90;;;;;;5013107;28;20571;-62
2023/12/23 11:36:45;;;;;;;;;;;-0.40;99.90;;;;;;5006757;28;19930;-61
2023/12/23 11:39:13;;;;;;;;;;;-0.40;99.90;;;;;;5009645;28;19960;-57
2023/12/23 11:41:41;;;;;;;;;;;-0.40;99.90;;;;;;4990649;28;19955;-65
2023/12/23 11:44:09;;;;;;;;;;;-0.40;99.90;;;;;;5009685;28;19936;-58
2023/12/23 11:46:37;;;;;;;;;;;-0.30;99.90;;;;;;5009227;28;19929;-60
2023/12/23 11:49:06;;;;;;;;;;;-0.40;99.90;;;;;;5010500;28;20103;-59
2023/12/23 11:51:33;;;;;;;;;;;-0.40;99.90;;;;;;5009999;28;19925;-61
2023/12/23 11:54:01;;;;;;;;;;;-0.40;99.90;;;;;;5015939;28;20021;-57
2023/12/23 11:56:28;;;;;;;;;;;-0.40;99.90;;;;;;5019471;28;19929;-60
2023/12/23 11:58:55;;;;;;;;;;;-0.40;99.90;;;;;;5019399;28;20406;-60
2023/12/23 12:01:21;;;;;;;;;;;-0.40;99.90;;;;;;5015995;28;19932;-58
2023/12/23 12:03:48;;;;;;;;;;;-0.40;99.90;;;;;;5008252;28;19929;-60
2023/12/23 12:06:15;;;;;;;;;;;-0.40;99.90;;;;;;5010787;28;19930;-62
2023/12/23 12:08:42;;;;;;;;;;;-0.40;99.90;;;;;;5012863;28;19976;-59
2023/12/23 12:11:09;;;;;;;;;;;-0.40;99.90;;;;;;5013843;28;19956;-58
2023/12/23 12:13:37;;;;;;;;;;;-0.40;99.90;;;;;;5017181;28;19926;-58
2023/12/23 12:16:04;;;;;;;;;;;-0.40;99.90;;;;;;5017271;28;19935;-56
2023/12/23 12:18:31;;;;;;;;;;;-0.40;99.90;;;;;;5018463;28;20371;-60
2023/12/23 12:20:58;;;;;;;;;;;-0.40;99.90;;;;;;5015474;28;19936;-59
2023/12/23 12:23:25;;;;;;;;;;;-0.40;99.90;;;;;;5019709;28;20000;-58
2023/12/23 12:25:51;;;;;;;;;;;-0.40;99.90;;;;;;5005435;28;19925;-60
2023/12/23 12:28:19;;;;;;;;;;;-0.30;99.90;;;;;;5009125;28;19929;-60
2023/12/23 12:30:46;;;;;;;;;;;-0.40;99.90;;;;;;5012883;28;19940;-60
2023/12/23 12:33:14;;;;;;;;;;;-0.40;99.90;;;;;;5015943;28;19961;-57
2023/12/23 12:35:41;;;;;;;;;;;-0.40;99.90;;;;;;5012675;28;19929;-57
2023/12/23 12:38:08;;;;;;;;;;;-0.40;99.90;;;;;;5016737;28;19936;-60
2023/12/23 12:40:48;;;;;;;;;;;-0.50;99.90;;;;;;5016682;28;20016;-61
2023/12/23 12:43:15;;;;;;;;;;;-0.40;99.90;;;;;;5020177;28;19929;-66
2023/12/23 12:45:42;;;;;;;;;;;-0.50;99.90;;;;;;5016476;28;19932;-62
2023/12/23 12:48:12;;;;;;;;;;;-0.50;99.90;;;;;;5011676;28;19930;-58
2023/12/23 12:50:41;;;;;;;;;;;-0.50;99.90;;;;;;5008799;28;19929;-61
2023/12/23 12:53:07;;;;;;;;;;;-0.50;99.90;;;;;;5009748;28;19939;-59
2023/12/23 12:55:35;;;;;;;;;;;-0.40;99.90;;;;;;5014502;28;20391;-63
2023/12/23 12:58:02;;;;;;;;;;;-0.50;99.90;;;;;;5007597;28;19929;-62
2023/12/23 13:00:29;;;;;;;;;;;-0.50;99.90;;;;;;5017916;28;20012;-59
2023/12/23 13:02:56;;;;;;;;;;;-0.40;99.90;;;;;;5011848;28;19929;-59
2023/12/23 13:05:23;;;;;;;;;;;-0.50;99.90;;;;;;5012235;28;19936;-60
2023/12/23 13:07:52;;;;;;;;;;;-0.50;99.90;;;;;;5014962;28;19980;-61
2023/12/23 13:10:22;;;;;;;;;;;-0.50;99.90;;;;;;5014795;28;20379;-62
2023/12/23 13:12:49;;;;;;;;;;;-0.40;99.90;;;;;;5008561;28;19926;-59
2023/12/23 13:15:16;;;;;;;;;;;-0.40;99.90;;;;;;5009335;28;19925;-61
2023/12/23 13:17:43;;;;;;;;;;;-0.40;99.90;;;;;;5010149;28;20371;-63
2023/12/23 13:20:11;;;;;;;;;;;-0.40;99.90;;;;;;5009707;28;19926;-58
2023/12/23 13:22:39;;;;;;;;;;;-0.50;99.90;;;;;;5011367;28;20023;-60
2023/12/23 13:25:09;;;;;;;;;;;-0.40;99.90;;;;;;5016292;28;19929;-59
2023/12/23 13:27:36;;;;;;;;;;;-0.40;99.90;;;;;;5014648;28;20437;-58
2023/12/23 13:30:03;;;;;;;;;;;-0.50;99.90;;;;;;5015078;28;19929;-59
2023/12/23 13:32:32;;;;;;;;;;;-0.50;99.90;;;;;;5018751;28;19964;-58
2023/12/23 13:35:02;;;;;;;;;;;-0.50;99.90;;;;;;5001048;28;20009;-58
2023/12/23 13:37:30;;;;;;;;;;;-0.50;99.90;;;;;;5009883;28;19932;-58
2023/12/23 13:39:58;;;;;;;;;;;-0.50;99.90;;;;;;5009575;28;19940;-60
2023/12/23 13:42:25;;;;;;;;;;;-0.50;99.90;;;;;;5009762;28;19956;-59
2023/12/23 13:44:52;;;;;;;;;;;-0.50;99.90;;;;;;5013410;28;20309;-58
2023/12/23 13:47:18;;;;;;;;;;;-0.60;99.90;;;;;;5013197;28;19968;-60
2023/12/23 13:49:45;;;;;;;;;;;-0.60;99.90;;;;;;5014682;28;20521;-59
2023/12/23 13:52:14;;;;;;;;;;;-0.60;99.90;;;;;;5015494;28;20395;-57
2023/12/23 13:54:41;;;;;;;;;;;-0.60;99.90;;;;;;5018345;28;20360;-61
2023/12/23 13:57:08;;;;;;;;;;;-0.60;99.90;;;;;;5016077;28;19979;-60
2023/12/23 13:59:35;;;;;;;;;;;-0.60;99.90;;;;;;5011247;28;21209;-58
2023/12/23 14:02:04;;;;;;;;;;;-0.60;99.90;;;;;;5009080;28;20254;-58
2023/12/23 14:04:31;;;;;;;;;;;-0.60;99.90;;;;;;5012721;28;20335;-59
2023/12/23 14:06:57;;;;;;;;;;;-0.60;99.90;;;;;;5004569;28;21692;-58
2023/12/23 14:09:25;;;;;;;;;;;-0.70;99.90;;;;;;5011814;28;19973;-58
2023/12/23 14:11:52;;;;;;;;;;;-0.70;99.90;;;;;;5014471;28;19965;-58
2023/12/23 14:14:18;;;;;;;;;;;-0.70;99.90;;;;;;5012253;28;19933;-60
2023/12/23 14:16:45;;;;;;;;;;;-0.70;99.90;;;;;;5017917;28;20318;-59
2023/12/23 14:19:12;;;;;;;;;;;-0.60;99.90;;;;;;5018706;28;20445;-59
2023/12/23 14:21:40;;;;;;;;;;;-0.60;99.90;;;;;;5015853;28;19937;-60
2023/12/23 14:24:07;;;;;;;;;;;-0.60;99.90;;;;;;5005191;28;19933;-57